Lulu Pass Weather Station

This weather station provides temperature, relative humidity (RH), wind speed, gust or max wind speed, and wind direction at 10014ft near Lulu Pass at the head of Fisher Creek. This data can be used with temperature and precipitation data from the Fisher Creek SNOTEL site.

This weather station was purchased by the Friends of the Avalanche Center.

If the data has not been updated recently you can view it directly on datagarrison.com

Elevation
10014ft
Jump to table bottom
Date Time Temperature
deg F
RH, % Wind Speed Wind Gust Wind Direction
10/18/21 05:00 33.7 51 6 15 SW - 222
10/18/21 04:00 35.1 50 9 24 S - 195
10/18/21 03:00 35.0 49 5 15 S - 202
10/18/21 02:00 34.7 49 4 13 SW - 239
10/18/21 01:00 34.3 49 6 14 NW - 300
10/18/21 00:00 33.7 48 4 13 W - 278
10/17/21 23:00 34.9 49 5 14 SW - 233
10/17/21 22:00 35.4 53 6 15 S - 195
10/17/21 21:00 35.2 52 12 32 S - 191
10/17/21 20:00 37.9 48 17 33 S - 187
10/17/21 19:00 39.2 47 16 28 S - 187
10/17/21 18:00 39.5 45 16 25 S - 187
10/17/21 17:00 43.2 42 15 34 S - 188
10/17/21 16:00 43.4 41 15 30 S - 185
10/17/21 15:00 43.1 42 17 31 S - 191
10/17/21 14:00 42.2 42 16 32 S - 187
10/17/21 13:00 41.2 42 16 35 S - 192
10/17/21 12:00 41.6 38 10 26 S - 178
10/17/21 11:00 40.6 34 12 26 SE - 156
10/17/21 10:00 40.8 33 10 24 S - 177
10/17/21 09:00 39.0 35 9 20 SE - 150
10/17/21 08:00 37.2 39 5 14 S - 160
10/17/21 07:00 35.8 42 5 13 SE - 142
10/17/21 06:00 36.1 43 5 11 S - 197
10/17/21 05:00 35.1 50 5 12 S - 197
10/17/21 04:00 32.8 52 5 10 SW - 219
10/17/21 03:00 32.4 54 5 12 S - 195
10/17/21 02:00 31.7 57 8 16 S - 188
10/17/21 01:00 31.9 57 9 17 S - 202
10/17/21 00:00 31.6 59 8 16 SW - 209
10/16/21 23:00 30.8 70 5 11 SW - 241
10/16/21 22:00 30.4 75 4 7 W - 288
10/16/21 21:00 31.8 75 3 7 W - 289
10/16/21 20:00 31.8 77 3 11 W - 292
10/16/21 19:00 32.1 79 4 11 W - 292
10/16/21 18:00 33.7 79 6 14 W - 279
10/16/21 17:00 34.9 80 6 13 W - 284
10/16/21 16:00 35.6 90 4 16 SW - 222
10/16/21 15:00 35.6 96 5 11 SW - 222
10/16/21 14:00 33.9 97 4 11 W - 251
10/16/21 13:00 30.8 97 4 9 NW - 326
10/16/21 12:00 26.0 97 6 13 N - 348
10/16/21 11:00 24.2 96 8 13 NW - 300
10/16/21 10:00 23.7 96 8 15 W - 272
10/16/21 09:00 22.1 95 6 12 W - 248
10/16/21 08:00 20.8 95 8 14 W - 288
10/16/21 07:00 20.5 95 7 13 W - 263
10/16/21 06:00 20.8 95 7 11 W - 275
10/16/21 05:00 20.9 96 6 13 W - 261
10/16/21 04:00 21.4 96 6 12 W - 263